ADT,Max TemperatureF,Mean TemperatureF,Min TemperatureF,Max Dew PointF,MeanDew PointF,Min DewpointF,Max Humidity, Mean Humidity, Min Humidity, Max Sea Level PressureIn, Mean Sea Level PressureIn, Min Sea Level PressureIn, Max VisibilityMiles, Mean VisibilityMiles, Min VisibilityMiles, Max Wind SpeedMPH, Mean Wind SpeedMPH, Max Gust SpeedMPH,PrecipitationIn, CloudCover, Events, WindDirDegrees
2013-9-1,34,32,29,28,27,25,91,82,74,29.57,29.40,29.27,6,6,6,8,4,,0.00,7,,271
2013-9-2,38,34,30,32,28,24,92,79,67,29.65,29.57,29.38,6,6,4,43,9,55,0.00,7,Rain-Snow,138
2013-9-3,37,36,35,32,32,28,87,84,74,29.47,29.36,29.23,6,6,4,55,40,63,0.00,5,Rain-Snow,121
2013-9-4,36,34,32,32,31,29,100,91,78,29.49,29.36,29.25,6,6,2,26,17,32,0.00,7,Snow,187
2013-9-5,34,32,31,32,29,25,100,87,75,29.57,29.50,29.43,6,6,2,21,12,28,0.00,8,Snow,206
2013-9-6,33,28,24,28,25,19,93,83,60,29.54,29.47,29.18,6,6,2,9,2,,0.00,5,Snow,148
2013-9-7,34,28,21,24,20,16,80,70,51,29.40,29.24,29.15,6,6,6,8,4,,0.00,1,,87
2013-9-8,37,32,27,30,27,23,90,80,69,29.55,29.51,29.42,6,6,6,8,2,,0.00,5,,177
2013-9-9,36,32,28,29,26,21,89,77,57,29.82,29.73,29.54,6,6,6,10,4,,0.00,7,,117
2013-9-10,39,32,26,26,22,17,88,68,43,29.72,29.31,29.01,6,6,6,8,4,,0.00,0,,107
2013-9-11,35,30,24,27,22,17,80,69,56,29.28,29.12,28.99,6,6,6,10,5,,0.00,4,,53
2013-9-12,34,32,31,26,24,22,78,68,62,29.64,29.53,29.30,6,6,6,25,11,33,0.00,8,,109
2013-9-13,34,31,28,24,21,17,71,64,56,29.75,29.68,29.61,6,6,6,18,11,26,0.00,4,,98
2013-9-14,35,30,26,27,23,16,86,71,62,29.93,29.82,29.76,6,6,6,20,7,,0.00,3,,104
2013-9-15,32,29,26,24,20,14,78,66,49,30.15,30.09,29.95,6,6,6,18,10,,0.00,7,,122
2013-9-16,32,26,21,25,15,9,80,58,39,30.01,29.59,29.36,6,6,6,16,5,,0.00,2,,77
2013-9-17,33,26,19,24,16,8,81,64,51,29.63,29.54,29.39,6,6,6,13,7,,0.00,2,,113
2013-9-18,32,26,20,22,18,14,83,73,57,29.61,29.55,29.51,6,6,6,10,6,,0.00,0,,94
2013-9-19,32,26,20,23,19,15,80,72,59,29.68,29.62,29.53,6,6,6,13,7,,0.00,4,,104
2013-9-20,34,26,20,23,19,16,83,73,52,29.67,29.64,29.61,6,6,6,10,4,,0.00,1,,95
2013-9-21,33,27,21,26,23,15,87,76,69,29.95,29.86,29.67,6,6,6,18,7,,0.00,7,,111
2013-9-22,31,28,23,24,20,15,89,69,60,30.07,29.99,29.90,6,6,6,18,9,26,0.00,7,,112
2013-9-23,32,28,23,22,20,16,84,67,54,30.16,30.10,30.01,6,6,6,15,7,,0.00,7,,118
2013-9-24,30,24,19,25,21,17,89,79,59,30.23,30.10,29.97,6,6,6,13,7,,0.00,7,,141
2013-9-25,29,24,19,25,22,14,90,85,80,30.26,30.22,30.17,6,6,6,12,3,,0.00,7,,67
2013-9-26,26,20,15,16,13,9,87,74,61,30.19,30.18,30.14,6,6,6,10,8,,0.00,2,,112
2013-9-27,24,19,14,17,13,8,86,77,70,30.14,30.11,30.04,6,6,6,10,6,,0.00,2,,107
2013-9-28,27,20,14,14,10,9,85,68,49,30.04,29.92,29.81,6,6,6,12,7,,0.00,0,,102
2013-9-29,31,24,17,14,11,9,73,62,47,29.81,29.78,29.76,6,6,6,16,8,,0.00,0,,102
2013-9-30,26,20,14,16,11,7,83,74,65,29.75,29.66,29.51,6,6,6,12,7,,0.00,0,,100